createdAt,value
2023-02-09T00:01:58.160Z,7.7
2023-02-09T00:07:34.099Z,7.7
2023-02-09T00:13:09.661Z,7.6
2023-02-09T00:18:44.644Z,7.5
2023-02-09T00:24:19.943Z,7.5
2023-02-09T00:29:56.294Z,7.5
2023-02-09T00:35:32.713Z,7.4
2023-02-09T00:41:30.668Z,7.4
2023-02-09T00:47:29.689Z,7.4
2023-02-09T00:53:02.294Z,7.4
2023-02-09T00:59:08.223Z,7.2
2023-02-09T01:05:01.405Z,7.2
2023-02-09T01:10:43.495Z,7.2
2023-02-09T01:16:21.463Z,7.2
2023-02-09T01:21:59.640Z,7.2
2023-02-09T01:27:35.762Z,7.2
2023-02-09T01:33:19.676Z,7.1
2023-02-09T01:38:54.509Z,7.1
2023-02-09T01:44:30.951Z,7
2023-02-09T01:50:10.296Z,7
2023-02-09T01:55:48.980Z,7
2023-02-09T02:01:24.066Z,6.9
2023-02-09T02:07:02.040Z,6.9
2023-02-09T02:12:46.252Z,6.9
2023-02-09T02:18:21.369Z,6.8
2023-02-09T02:23:56.961Z,6.8
2023-02-09T02:29:32.241Z,6.8
2023-02-09T02:35:35.927Z,6.7
2023-02-09T02:41:20.167Z,6.6
2023-02-09T02:47:19.898Z,6.6
2023-02-09T02:52:52.419Z,6.5
2023-02-09T02:58:36.204Z,6.6
2023-02-09T03:04:11.345Z,6.6
2023-02-09T03:09:50.999Z,6.6
2023-02-09T03:15:26.432Z,6.6
2023-02-09T03:21:03.054Z,6.6
2023-02-09T03:26:38.840Z,6.5
2023-02-09T03:32:13.779Z,6.4
2023-02-09T03:37:48.862Z,6.4
2023-02-09T03:43:23.643Z,6.4
2023-02-09T03:49:26.171Z,6.3
2023-02-09T03:54:58.680Z,6.3
2023-02-09T04:00:33.649Z,6.2
2023-02-09T04:06:09.406Z,6.2
2023-02-09T04:11:44.344Z,6.2
2023-02-09T04:17:19.402Z,6.2
2023-02-09T04:22:57.662Z,6.1
2023-02-09T04:29:00.719Z,6.1
2023-02-09T04:34:39.232Z,6.1
2023-02-09T04:40:21.203Z,6
2023-02-09T04:45:56.529Z,6
2023-02-09T04:51:32.993Z,6
2023-02-09T04:57:29.778Z,6
2023-02-09T05:03:04.811Z,6
2023-02-09T05:08:40.197Z,6
2023-02-09T05:14:16.085Z,5.9
2023-02-09T05:19:51.404Z,5.9
2023-02-09T05:25:27.819Z,5.9
2023-02-09T05:31:04.229Z,5.9
2023-02-09T05:36:40.698Z,5.8
2023-02-09T05:42:16.591Z,5.8
2023-02-09T05:48:14.165Z,5.9
2023-02-09T05:53:46.774Z,5.8
2023-02-09T05:59:24.028Z,5.8
2023-02-09T06:05:08.399Z,5.8
2023-02-09T06:10:53.971Z,5.8
2023-02-09T06:16:31.563Z,5.8
2023-02-09T06:22:12.820Z,5.7
2023-02-09T06:27:54.562Z,5.7
2023-02-09T06:33:30.256Z,5.8
2023-02-09T06:39:05.793Z,5.9
2023-02-09T06:44:41.501Z,5.9
2023-02-09T06:50:37.158Z,5.9
2023-02-09T06:56:30.601Z,5.4
2023-02-09T07:02:11.426Z,3.6
2023-02-09T07:08:42.262Z,3.1
2023-02-09T07:14:20.680Z,2.9
2023-02-09T07:20:09.928Z,2.9
2023-02-09T07:25:45.056Z,3
2023-02-09T07:31:28.980Z,3.1
2023-02-09T07:37:08.808Z,3.2
2023-02-09T07:42:45.733Z,3.3
2023-02-09T07:48:42.656Z,3.5
2023-02-09T07:54:15.631Z,3.5
2023-02-09T07:59:58.072Z,3.6
2023-02-09T08:05:54.124Z,3.8
2023-02-09T08:11:55.017Z,3.9
2023-02-09T08:18:03.093Z,4.1
2023-02-09T08:23:49.662Z,4.4
2023-02-09T08:29:26.290Z,4.3
2023-02-09T08:35:03.836Z,4.4
2023-02-09T08:40:40.132Z,4.7
2023-02-09T08:46:23.337Z,5.1
2023-02-09T08:52:01.827Z,5.3
2023-02-09T08:57:44.219Z,5.7
2023-02-09T09:03:20.636Z,6
2023-02-09T09:08:56.959Z,6.3
2023-02-09T09:14:32.450Z,6.6
2023-02-09T09:20:07.827Z,6.9
2023-02-09T09:25:44.542Z,7.2
2023-02-09T09:31:24.320Z,7.4
2023-02-09T09:37:01.896Z,7.7
2023-02-09T09:42:38.185Z,8.1
2023-02-09T09:48:14.210Z,8.4
2023-02-09T09:53:49.759Z,8.6
2023-02-09T09:59:26.717Z,8.9
2023-02-09T10:05:02.254Z,8.9
2023-02-09T10:10:37.860Z,9.1
2023-02-09T10:16:13.392Z,9
2023-02-09T10:21:48.574Z,9.1
2023-02-09T10:27:23.561Z,9.4
2023-02-09T10:32:58.876Z,9.5
2023-02-09T10:38:34.194Z,9.6
2023-02-09T10:44:10.532Z,9.8
2023-02-09T10:49:45.863Z,10.1
2023-02-09T10:55:21.120Z,10
2023-02-09T11:00:56.243Z,10.1
2023-02-09T11:06:31.731Z,10.3
2023-02-09T11:12:07.137Z,10.4
2023-02-09T11:17:43.055Z,10.5
2023-02-09T11:23:20.144Z,10.7
2023-02-09T11:28:55.700Z,10.5
2023-02-09T11:34:31.041Z,10.8
2023-02-09T11:40:06.977Z,11.2
2023-02-09T11:45:42.505Z,11.3
2023-02-09T11:51:17.990Z,11.1
2023-02-09T11:56:54.208Z,11.2
2023-02-09T12:02:30.539Z,11
2023-02-09T12:08:06.413Z,11.8
2023-02-09T12:13:44.695Z,11.7
2023-02-09T12:19:24.740Z,11.8
2023-02-09T12:24:59.927Z,11.9
2023-02-09T12:30:44.762Z,12.4
2023-02-09T12:36:23.847Z,12.1
2023-02-09T12:41:59.465Z,12.5
2023-02-09T12:47:34.661Z,13.5
2023-02-09T12:53:10.026Z,12.4
2023-02-09T12:58:45.150Z,11.5
2023-02-09T13:04:20.542Z,12.6
2023-02-09T13:09:56.961Z,12.5
2023-02-09T13:15:32.082Z,11.7
2023-02-09T13:21:08.101Z,12.8
2023-02-09T13:26:43.550Z,13.4
2023-02-09T13:32:19.324Z,13.9
2023-02-09T13:37:54.591Z,14.3
2023-02-09T13:43:30.551Z,14.4
2023-02-09T13:49:15.117Z,14.9
2023-02-09T13:54:50.106Z,14.8
2023-02-09T14:00:25.795Z,15.8
2023-02-09T14:06:01.805Z,16.5
2023-02-09T14:11:42.501Z,16.9
2023-02-09T14:17:25.043Z,18.2
2023-02-09T14:23:03.080Z,18.2
2023-02-09T14:28:39.103Z,18.9
2023-02-09T14:34:14.890Z,19.6
2023-02-09T14:39:50.593Z,20.4
2023-02-09T14:45:26.110Z,21.8
2023-02-09T14:51:08.428Z,21.5
2023-02-09T14:56:43.324Z,21.5
2023-02-09T15:02:19.790Z,22.6
2023-02-09T15:07:56.618Z,22.9
2023-02-09T15:13:31.991Z,23.3
2023-02-09T15:19:07.572Z,22.9
2023-02-09T15:24:43.426Z,21.7
2023-02-09T15:30:18.641Z,18.3
2023-02-09T15:35:53.717Z,15.6
2023-02-09T15:41:28.648Z,14.8
2023-02-09T15:47:04.838Z,13.9
2023-02-09T15:52:39.740Z,13.3
2023-02-09T15:58:20.337Z,13.1
2023-02-09T16:04:00.409Z,13.2
2023-02-09T16:09:50.200Z,12.3
2023-02-09T16:15:25.950Z,12
2023-02-09T16:21:01.470Z,11.6
2023-02-09T16:26:36.584Z,11.4
2023-02-09T16:32:11.930Z,11.4
2023-02-09T16:37:47.768Z,11.1
2023-02-09T16:43:23.982Z,10.8
2023-02-09T16:48:59.660Z,10.6
2023-02-09T16:54:34.845Z,10.4
2023-02-09T17:00:12.629Z,10.1
2023-02-09T17:05:49.608Z,9.7
2023-02-09T17:11:25.612Z,9.5
2023-02-09T17:17:03.498Z,9.4
2023-02-09T17:22:47.296Z,9.1
2023-02-09T17:28:22.474Z,8.9
2023-02-09T17:33:59.742Z,8.7
2023-02-09T17:39:36.410Z,8.5
2023-02-09T17:45:12.563Z,8.4
2023-02-09T17:50:48.953Z,8.5
2023-02-09T17:56:28.822Z,9.6
2023-02-09T18:02:06.340Z,9.9
2023-02-09T18:07:58.189Z,10
2023-02-09T18:13:33.973Z,10.1
2023-02-09T18:19:37.512Z,10.2
2023-02-09T18:25:12.765Z,10.3
2023-02-09T18:30:56.237Z,10.3
2023-02-09T18:36:59.115Z,10.3
2023-02-09T18:42:37.237Z,10.3
2023-02-09T18:48:13.224Z,10.3
2023-02-09T18:54:16.469Z,10.2
2023-02-09T18:59:52.627Z,10.2
2023-02-09T19:05:42.287Z,10.1
2023-02-09T19:11:17.324Z,10.1
2023-02-09T19:17:05.849Z,10.1
2023-02-09T19:22:42.260Z,10.1
2023-02-09T19:28:20.954Z,10.1
2023-02-09T19:34:00.754Z,10.1
2023-02-09T19:39:35.847Z,10
2023-02-09T19:45:21.786Z,9.9
2023-02-09T19:50:57.220Z,9.9
2023-02-09T19:56:32.613Z,9.8
2023-02-09T20:02:11.795Z,9.8
2023-02-09T20:08:09.771Z,9.7
2023-02-09T20:14:46.997Z,9.7
2023-02-09T20:20:26.580Z,9.7
2023-02-09T20:26:02.579Z,9.6
2023-02-09T20:31:38.184Z,9.6
2023-02-09T20:37:19.314Z,9.5
2023-02-09T20:43:03.887Z,9.4
2023-02-09T20:49:00.926Z,9.3
2023-02-09T20:54:33.662Z,9.3
2023-02-09T21:00:18.963Z,9.2
2023-02-09T21:11:41.456Z,9.1
2023-02-09T21:17:26.196Z,9
2023-02-09T21:23:05.995Z,8.9
2023-02-09T21:28:50.838Z,8.8
2023-02-09T21:34:36.622Z,8.8
2023-02-09T21:40:12.820Z,8.7
2023-02-09T21:45:48.340Z,8.6
2023-02-09T21:51:25.188Z,8.6
2023-02-09T21:57:09.414Z,8.5
2023-02-09T22:02:44.740Z,8.5
2023-02-09T22:08:21.350Z,8.5
2023-02-09T22:13:56.513Z,8.4
2023-02-09T22:19:31.790Z,8.4
2023-02-09T22:25:06.738Z,8.3
2023-02-09T22:30:42.683Z,8.1
2023-02-09T22:36:20.637Z,8
2023-02-09T22:42:25.842Z,8
2023-02-09T22:48:22.088Z,7.9
2023-02-09T22:54:01.640Z,8
2023-02-09T23:00:26.968Z,8
2023-02-09T23:06:02.191Z,7.9
2023-02-09T23:11:41.925Z,7.8
2023-02-09T23:17:26.023Z,7.7
2023-02-09T23:23:03.462Z,7.6
2023-02-09T23:28:38.649Z,7.5
2023-02-09T23:34:15.019Z,7.5
2023-02-09T23:39:50.217Z,7.4
2023-02-09T23:45:27.258Z,7.3
2023-02-09T23:51:03.368Z,7.2
2023-02-09T23:56:46.447Z,7.2
